createdAt,value
2019-03-26T00:01:54.476Z,100887.15
2019-03-26T00:04:22.868Z,100886.39
2019-03-26T00:06:51.268Z,100887.98
2019-03-26T00:09:19.659Z,100887.66
2019-03-26T00:11:48.318Z,100880.22
2019-03-26T00:14:16.703Z,100882.31
2019-03-26T00:16:45.100Z,100882.78
2019-03-26T00:19:13.589Z,100880.50
2019-03-26T00:21:41.982Z,100877.75
2019-03-26T00:24:10.533Z,100884.28
2019-03-26T00:26:38.936Z,100885.21
2019-03-26T00:29:07.344Z,100886.75
2019-03-26T00:31:35.738Z,100887.21
2019-03-26T00:34:04.193Z,100889.73
2019-03-26T00:36:32.608Z,100886.04
2019-03-26T00:39:01.093Z,100888.70
2019-03-26T00:41:29.490Z,100895.36
2019-03-26T00:43:57.882Z,100894.89
2019-03-26T00:46:26.305Z,100898.81
2019-03-26T00:48:54.704Z,100905.06
2019-03-26T00:51:23.125Z,100906.70
2019-03-26T00:53:51.521Z,100911.28
2019-03-26T00:56:19.929Z,100918.09
2019-03-26T00:58:48.323Z,100922.47
2019-03-26T01:01:17.058Z,100923.56
2019-03-26T01:03:45.458Z,100923.09
2019-03-26T01:06:13.867Z,100924.87
2019-03-26T01:08:42.266Z,100931.86
2019-03-26T01:11:10.853Z,100933.59
2019-03-26T01:13:39.264Z,100939.48
2019-03-26T01:16:07.711Z,100940.38
2019-03-26T01:18:36.101Z,100939.56
2019-03-26T01:21:04.574Z,100942.61
2019-03-26T01:23:32.969Z,100935.14
2019-03-26T01:26:01.388Z,100927.72
2019-03-26T01:28:29.793Z,100923.79
2019-03-26T01:30:58.184Z,100923.71
2019-03-26T01:33:26.597Z,100919.88
2019-03-26T01:35:54.985Z,100921.74
2019-03-26T01:38:23.408Z,100923.32
2019-03-26T01:40:51.918Z,100930.47
2019-03-26T01:43:20.335Z,100928.13
2019-03-26T01:45:48.733Z,100923.55
2019-03-26T01:48:17.146Z,100922.05
2019-03-26T01:50:45.536Z,100929.52
2019-03-26T01:53:13.972Z,100932.88
2019-03-26T01:55:42.357Z,100939.23
2019-03-26T01:58:10.780Z,100939.23
2019-03-26T02:00:39.169Z,100949.50
2019-03-26T02:03:07.584Z,100949.13
2019-03-26T02:05:35.980Z,100942.27
2019-03-26T02:08:04.501Z,100946.17
2019-03-26T02:10:32.902Z,100880.73
2019-03-26T02:13:01.404Z,100942.53
2019-03-26T02:15:31.132Z,100955.08
2019-03-26T02:18:00.246Z,100962.27
2019-03-26T02:20:28.780Z,100956.84
2019-03-26T02:22:57.386Z,100961.10
2019-03-26T02:25:25.826Z,100967.03
2019-03-26T02:27:54.305Z,100964.88
2019-03-26T02:30:22.724Z,100964.88
2019-03-26T02:32:51.166Z,100968.26
2019-03-26T02:35:19.702Z,100969.66
2019-03-26T02:37:48.098Z,100970.78
2019-03-26T02:40:16.479Z,100963.95
2019-03-26T02:42:44.888Z,100965.20
2019-03-26T02:45:13.428Z,100969.34
2019-03-26T02:47:41.828Z,100968.28
2019-03-26T02:50:10.749Z,100969.23
2019-03-26T02:52:39.140Z,100964.40
2019-03-26T02:55:07.846Z,100953.36
2019-03-26T02:57:36.407Z,100961.24
2019-03-26T03:00:07.174Z,100960.77
2019-03-26T03:02:35.635Z,100961.52
2019-03-26T03:05:04.337Z,100960.20
2019-03-26T03:07:32.740Z,100962.31
2019-03-26T03:10:01.203Z,100968.02
2019-03-26T03:12:29.610Z,100971.58
2019-03-26T03:14:58.027Z,100971.11
2019-03-26T03:17:26.418Z,100978.53
2019-03-26T03:19:54.812Z,100984.88
2019-03-26T03:22:23.294Z,100979.16
2019-03-26T03:24:51.759Z,100989.06
2019-03-26T03:27:20.150Z,100988.23
2019-03-26T03:29:48.555Z,100982.63
2019-03-26T03:32:16.969Z,100981.41
2019-03-26T03:34:45.377Z,100979.16
2019-03-26T03:37:13.789Z,100977.79
2019-03-26T03:39:42.186Z,100974.59
2019-03-26T03:42:10.737Z,100979.44
2019-03-26T03:44:39.206Z,100986.34
2019-03-26T03:47:08.149Z,100985.21
2019-03-26T03:49:37.092Z,100989.80
2019-03-26T03:52:05.968Z,100991.53
2019-03-26T03:54:36.511Z,100992.48
2019-03-26T03:57:06.139Z,100993.52
2019-03-26T03:59:34.817Z,100995.88
2019-03-26T04:02:03.330Z,100998.15
2019-03-26T04:04:31.776Z,100997.69
2019-03-26T04:07:00.253Z,101002.95
2019-03-26T04:09:28.661Z,101013.59
2019-03-26T04:11:57.060Z,101009.64
2019-03-26T04:14:25.454Z,101013.31
2019-03-26T04:16:53.849Z,101012.57
2019-03-26T04:19:22.280Z,101011.73
2019-03-26T04:21:50.681Z,101017.80
2019-03-26T04:24:19.140Z,101013.78
2019-03-26T04:28:35.014Z,101022.80
2019-03-26T04:31:03.500Z,101021.96
2019-03-26T04:33:31.906Z,101027.89
2019-03-26T04:36:00.295Z,101027.66
2019-03-26T04:38:28.715Z,101023.83
2019-03-26T04:40:57.227Z,101028.64
2019-03-26T04:43:25.691Z,101022.92
2019-03-26T04:45:54.065Z,101025.73
2019-03-26T04:48:22.488Z,101033.02
2019-03-26T04:50:50.895Z,101034.50
2019-03-26T04:53:19.323Z,101043.19
2019-03-26T04:55:47.717Z,101040.82
2019-03-26T04:58:16.121Z,101044.83
2019-03-26T05:00:44.587Z,101042.77
2019-03-26T05:03:13.056Z,101037.34
2019-03-26T05:05:41.459Z,101033.42
2019-03-26T05:08:09.859Z,101039.78
2019-03-26T05:10:38.262Z,101042.72
2019-03-26T05:13:06.667Z,101044.26
2019-03-26T05:15:35.093Z,101042.16
2019-03-26T05:18:03.549Z,101050.99
2019-03-26T05:20:31.959Z,101057.77
2019-03-26T05:23:00.368Z,101060.41
2019-03-26T05:25:28.847Z,101052.78
2019-03-26T05:27:57.253Z,101054.09
2019-03-26T05:30:25.765Z,101062.03
2019-03-26T05:32:54.240Z,100996.09
2019-03-26T05:35:22.722Z,101072.72
2019-03-26T05:37:51.216Z,101068.42
2019-03-26T05:40:19.602Z,101074.92
2019-03-26T05:42:48.076Z,101078.19
2019-03-26T05:45:16.488Z,101074.67
2019-03-26T05:47:44.891Z,101083.73
2019-03-26T05:50:15.212Z,101081.25
2019-03-26T05:52:43.644Z,101084.28
2019-03-26T05:55:12.317Z,101094.14
2019-03-26T05:57:40.806Z,101104.70
2019-03-26T06:00:13.806Z,101102.61
2019-03-26T06:02:42.290Z,101106.33
2019-03-26T06:05:13.983Z,101117.38
2019-03-26T06:07:42.377Z,101113.62
2019-03-26T06:10:11.224Z,101117.73
2019-03-26T06:12:39.704Z,101126.47
2019-03-26T06:15:10.357Z,101118.55
2019-03-26T06:17:38.842Z,101115.16
2019-03-26T06:20:08.183Z,101116.23
2019-03-26T06:22:36.578Z,101116.19
2019-03-26T06:25:07.650Z,101114.72
2019-03-26T06:27:36.108Z,101111.20
2019-03-26T06:30:07.186Z,101118.80
2019-03-26T06:32:35.600Z,101124.78
2019-03-26T06:35:08.750Z,101124.55
2019-03-26T06:37:37.339Z,101116.95
2019-03-26T06:40:09.784Z,101120.77
2019-03-26T06:42:38.272Z,101124.95
2019-03-26T06:45:08.412Z,101130.22
2019-03-26T06:47:36.921Z,101127.77
2019-03-26T06:50:10.247Z,101129.67
2019-03-26T06:52:39.060Z,101122.78
2019-03-26T06:55:08.215Z,101119.42
2019-03-26T06:57:37.061Z,101116.52
2019-03-26T07:00:11.196Z,101116.67
2019-03-26T07:02:39.670Z,101115.05
2019-03-26T07:05:08.805Z,101115.64
2019-03-26T07:07:37.201Z,101115.64
2019-03-26T07:10:07.943Z,101107.03
2019-03-26T07:12:36.447Z,101108.37
2019-03-26T07:15:07.651Z,101125.34
2019-03-26T07:17:36.142Z,101127.17
2019-03-26T07:20:07.390Z,101120.43
2019-03-26T07:22:35.815Z,101115.14
2019-03-26T07:25:06.511Z,101122.53
2019-03-26T07:27:34.922Z,101124.58
2019-03-26T07:30:03.978Z,101127.37
2019-03-26T07:32:32.388Z,101124.05
2019-03-26T07:35:00.827Z,101121.91
2019-03-26T07:37:29.234Z,101116.36
2019-03-26T07:39:57.830Z,101109.67
2019-03-26T07:42:26.238Z,101102.55
2019-03-26T07:44:54.743Z,101098.58
2019-03-26T07:47:23.217Z,101098.31
2019-03-26T07:49:51.742Z,101094.41
2019-03-26T07:52:20.153Z,101087.95
2019-03-26T07:54:48.556Z,101088.66
2019-03-26T07:57:17.036Z,101085.39
2019-03-26T07:59:45.474Z,101040.06
2019-03-26T08:02:13.969Z,101074.59
2019-03-26T08:04:42.365Z,101080.69
2019-03-26T08:07:10.773Z,101088.20
2019-03-26T08:09:39.167Z,101085.79
2019-03-26T08:12:07.578Z,101089.34
2019-03-26T08:14:36.104Z,101093.58
2019-03-26T08:17:04.624Z,101101.38
2019-03-26T08:19:33.085Z,101107.10
2019-03-26T08:22:01.517Z,101112.05
2019-03-26T08:24:32.047Z,101109.48
2019-03-26T08:27:00.448Z,101122.23
2019-03-26T08:29:28.853Z,101121.01
2019-03-26T08:31:57.304Z,101117.31
2019-03-26T08:34:25.783Z,101081.11
2019-03-26T08:36:54.194Z,101133.16
2019-03-26T08:39:22.623Z,101129.82
2019-03-26T08:41:51.031Z,101130.98
2019-03-26T08:44:19.449Z,101128.76
2019-03-26T08:46:47.883Z,101131.38
2019-03-26T08:49:16.283Z,101123.30
2019-03-26T08:51:44.743Z,101130.08
2019-03-26T08:54:13.158Z,101124.88
2019-03-26T08:56:41.566Z,101130.52
2019-03-26T08:59:10.030Z,101132.66
2019-03-26T09:01:38.568Z,101133.17
2019-03-26T09:04:07.047Z,101132.44
2019-03-26T09:06:35.698Z,101131.25
2019-03-26T09:09:06.549Z,101136.02
2019-03-26T09:11:34.943Z,101142.31
2019-03-26T09:14:03.508Z,101140.84
2019-03-26T09:16:32.070Z,101136.16
2019-03-26T09:19:00.517Z,101137.64
2019-03-26T09:21:29.008Z,101133.80
2019-03-26T09:23:57.425Z,101134.45
2019-03-26T09:26:25.821Z,101134.34
2019-03-26T09:28:54.235Z,101135.11
2019-03-26T09:31:22.795Z,101140.33
2019-03-26T09:33:51.203Z,101145.64
2019-03-26T09:36:19.693Z,101149.09
2019-03-26T09:38:48.176Z,101161.89
2019-03-26T09:41:16.579Z,101154.34
2019-03-26T09:43:44.985Z,101148.71
2019-03-26T09:46:13.456Z,101164.43
2019-03-26T09:48:41.928Z,101167.34
2019-03-26T09:51:10.942Z,101166.06
2019-03-26T09:53:39.500Z,101171.12
2019-03-26T09:56:07.913Z,101177.36
2019-03-26T09:58:36.300Z,101182.87
2019-03-26T10:01:04.893Z,101174.06
2019-03-26T10:03:33.356Z,101171.61
2019-03-26T10:06:01.870Z,101124.12
2019-03-26T10:08:30.361Z,101179.84
2019-03-26T10:10:58.836Z,101174.08
2019-03-26T10:13:27.240Z,101174.72
2019-03-26T10:15:55.672Z,101174.91
2019-03-26T10:18:24.178Z,101180.70
2019-03-26T10:20:52.613Z,101177.66
2019-03-26T10:23:21.016Z,101185.77
2019-03-26T10:25:49.513Z,101180.48
2019-03-26T10:28:17.914Z,101178.73
2019-03-26T10:30:46.410Z,101177.08
2019-03-26T10:33:14.794Z,101186.69
2019-03-26T10:35:43.291Z,101189.27
2019-03-26T10:38:11.719Z,101193.80
2019-03-26T10:40:40.390Z,101194.25
2019-03-26T10:43:08.935Z,101182.53
2019-03-26T10:45:37.405Z,101187.94
2019-03-26T10:48:05.968Z,101173.89
2019-03-26T10:50:34.375Z,101170.66
2019-03-26T10:53:02.830Z,101164.89
2019-03-26T10:55:31.368Z,101159.20
2019-03-26T10:57:59.807Z,101151.78
2019-03-26T11:00:28.278Z,101151.78
2019-03-26T11:02:56.739Z,101163.48
2019-03-26T11:05:25.520Z,101157.35
2019-03-26T11:07:53.991Z,101158.18
2019-03-26T11:10:22.401Z,101153.56
2019-03-26T11:12:50.819Z,101152.30
2019-03-26T11:15:38.559Z,101153.92
2019-03-26T11:18:07.237Z,101151.22
2019-03-26T11:20:35.676Z,101147.25
2019-03-26T11:23:04.164Z,101147.93
2019-03-26T11:25:32.659Z,101141.41
2019-03-26T11:28:01.098Z,101149.45
2019-03-26T11:30:29.659Z,101155.16
2019-03-26T11:32:58.180Z,101150.30
2019-03-26T11:35:26.663Z,101144.53
2019-03-26T11:37:55.140Z,101143.46
2019-03-26T11:40:23.605Z,101147.38
2019-03-26T11:42:52.064Z,101142.77
2019-03-26T11:45:20.711Z,101140.45
2019-03-26T11:47:50.664Z,101146.21
2019-03-26T11:50:19.304Z,101144.20
2019-03-26T11:52:47.833Z,101143.77
2019-03-26T11:55:16.466Z,101149.75
2019-03-26T11:57:45.013Z,101144.66
2019-03-26T12:00:17.071Z,101144.66
2019-03-26T12:02:45.488Z,101141.67
2019-03-26T12:05:14.033Z,101140.84
2019-03-26T12:07:43.059Z,101140.84
2019-03-26T12:10:13.225Z,101134.36
2019-03-26T12:12:41.719Z,101134.36
2019-03-26T12:15:11.741Z,101137.70
2019-03-26T12:17:40.140Z,101136.27
2019-03-26T12:20:08.754Z,101139.41
2019-03-26T12:22:37.265Z,101140.52
2019-03-26T12:25:07.109Z,101136.59
2019-03-26T12:33:32.422Z,101143.07
2019-03-26T12:42:35.774Z,101137.31
2019-03-26T12:45:07.205Z,101138.15
2019-03-26T12:47:35.770Z,101138.18
2019-03-26T12:50:06.753Z,101134.52
2019-03-26T12:52:35.158Z,101128.05
2019-03-26T12:55:03.785Z,101132.63
2019-03-26T12:57:32.142Z,101123.67
2019-03-26T13:00:00.578Z,101123.67
2019-03-26T13:02:29.148Z,101117.60
2019-03-26T13:04:58.597Z,101111.00
2019-03-26T13:07:27.070Z,101109.40
2019-03-26T13:09:55.560Z,101094.22
2019-03-26T13:12:23.954Z,101090.75
2019-03-26T13:14:52.369Z,101083.00
2019-03-26T13:17:20.825Z,101079.16
2019-03-26T13:22:17.475Z,101094.02
2019-03-26T13:24:45.866Z,101095.22
2019-03-26T13:27:14.351Z,101088.04
2019-03-26T13:29:42.796Z,101081.80
2019-03-26T13:32:13.009Z,101087.03
2019-03-26T13:34:41.362Z,101076.50
2019-03-26T13:37:09.778Z,101071.42
2019-03-26T13:39:38.227Z,101071.42
2019-03-26T13:42:06.703Z,101073.75
2019-03-26T13:44:35.193Z,101081.42
2019-03-26T13:47:03.696Z,101079.17
2019-03-26T13:49:32.130Z,101080.48
2019-03-26T13:52:00.559Z,101075.89
2019-03-26T13:54:28.951Z,101072.34
2019-03-26T13:56:57.429Z,101073.25
2019-03-26T13:59:25.845Z,101065.53
2019-03-26T14:01:54.246Z,101062.24
2019-03-26T14:04:22.673Z,101053.10
2019-03-26T14:06:52.543Z,101058.94
2019-03-26T14:09:21.342Z,101055.80
2019-03-26T14:11:49.836Z,101054.66
2019-03-26T14:14:18.262Z,101066.12
2019-03-26T14:16:46.676Z,101061.13
2019-03-26T14:19:15.148Z,101050.36
2019-03-26T14:21:43.542Z,101045.97
2019-03-26T14:24:13.476Z,101049.70
2019-03-26T14:26:42.024Z,101060.83
2019-03-26T14:29:10.639Z,101055.27
2019-03-26T14:31:39.041Z,101051.88
2019-03-26T14:34:07.486Z,101055.70
2019-03-26T14:36:35.959Z,101058.53
2019-03-26T14:39:07.452Z,101057.84
2019-03-26T14:41:35.869Z,101055.27
2019-03-26T14:44:04.357Z,101060.31
2019-03-26T14:46:32.791Z,101050.02
2019-03-26T14:49:01.264Z,101064.11
2019-03-26T14:51:29.700Z,101077.32
2019-03-26T14:53:58.132Z,101077.81
2019-03-26T14:56:26.580Z,101074.47
2019-03-26T14:58:54.980Z,101075.42
2019-03-26T15:01:23.488Z,101077.55
2019-03-26T15:03:51.934Z,101084.70
2019-03-26T15:06:20.406Z,101086.23
2019-03-26T15:08:48.970Z,101076.95
2019-03-26T15:11:17.399Z,101077.25
2019-03-26T15:13:49.236Z,101071.56
2019-03-26T15:16:16.076Z,101071.81
2019-03-26T15:18:44.569Z,101075.91
2019-03-26T15:21:13.071Z,101075.98
2019-03-26T15:23:41.498Z,101080.71
2019-03-26T15:26:10.010Z,101083.44
2019-03-26T15:28:38.434Z,101078.63
2019-03-26T15:31:06.971Z,101080.08
2019-03-26T15:33:35.437Z,101077.86
2019-03-26T15:36:04.004Z,101081.94
2019-03-26T15:38:32.463Z,101074.06
2019-03-26T15:41:20.950Z,101072.34
2019-03-26T15:43:39.794Z,101071.27
2019-03-26T15:46:11.494Z,101060.33
2019-03-26T15:48:39.918Z,101065.88
2019-03-26T15:51:08.409Z,101072.44
2019-03-26T15:53:36.852Z,101071.88
2019-03-26T15:56:05.408Z,101080.22
2019-03-26T15:58:33.828Z,101001.80
2019-03-26T16:01:02.336Z,101079.45
2019-03-26T16:03:30.794Z,101074.98
2019-03-26T16:05:59.194Z,101077.64
2019-03-26T16:08:27.683Z,101071.00
2019-03-26T16:10:56.182Z,101069.67
2019-03-26T16:13:24.612Z,101076.45
2019-03-26T16:15:53.042Z,101084.14
2019-03-26T16:18:21.474Z,101083.91
2019-03-26T16:20:49.882Z,101082.66
2019-03-26T16:23:18.331Z,101071.36
2019-03-26T16:25:46.727Z,101088.15
2019-03-26T16:28:15.160Z,101090.99
2019-03-26T16:30:43.559Z,101086.96
2019-03-26T16:33:12.077Z,101085.70
2019-03-26T16:35:40.677Z,101083.69
2019-03-26T16:38:09.196Z,101084.41
2019-03-26T16:40:38.819Z,101082.50
2019-03-26T16:43:07.213Z,101082.50
2019-03-26T16:45:35.622Z,101078.88
2019-03-26T16:48:04.115Z,101079.02
2019-03-26T16:50:32.650Z,101079.02
2019-03-26T16:53:01.057Z,101078.88
2019-03-26T16:55:29.463Z,101082.56
2019-03-26T16:57:58.223Z,101080.39
2019-03-26T17:00:31.278Z,101068.47
2019-03-26T17:03:00.429Z,101068.47
2019-03-26T17:05:28.962Z,101081.16
2019-03-26T17:07:57.496Z,101077.85
2019-03-26T17:10:25.898Z,101068.77
2019-03-26T17:12:54.327Z,101071.73
2019-03-26T17:15:22.820Z,101073.00
2019-03-26T17:17:51.234Z,101070.45
2019-03-26T17:20:19.681Z,101071.07
2019-03-26T17:22:48.088Z,101071.07
2019-03-26T17:25:16.509Z,101080.40
2019-03-26T17:27:44.997Z,101083.48
2019-03-26T17:30:13.673Z,101081.73
2019-03-26T17:32:42.079Z,101081.73
2019-03-26T17:35:10.646Z,101077.85
2019-03-26T17:37:39.055Z,101075.13
2019-03-26T17:40:07.621Z,101083.59
2019-03-26T17:42:36.094Z,101082.41
2019-03-26T17:45:06.454Z,101082.19
2019-03-26T17:47:35.038Z,101082.19
2019-03-26T17:50:04.613Z,101084.77
2019-03-26T17:52:33.021Z,101085.47
2019-03-26T17:55:01.437Z,101086.64
2019-03-26T17:57:29.865Z,101087.77
2019-03-26T17:59:58.349Z,101093.12
2019-03-26T18:02:26.860Z,101097.56
2019-03-26T18:04:55.803Z,101092.86
2019-03-26T18:07:24.295Z,101092.89
2019-03-26T18:09:52.713Z,101094.48
2019-03-26T18:12:30.637Z,101100.78
2019-03-26T18:14:51.327Z,101099.24
2019-03-26T18:17:19.737Z,101109.92
2019-03-26T18:19:48.138Z,101110.05
2019-03-26T18:22:16.585Z,101111.50
2019-03-26T18:24:44.978Z,101119.70
2019-03-26T18:27:13.393Z,101115.06
2019-03-26T18:29:41.822Z,101121.01
2019-03-26T18:32:10.249Z,101125.95
2019-03-26T18:34:38.661Z,101126.98
2019-03-26T18:37:07.146Z,101130.28
2019-03-26T18:39:35.593Z,101131.48
2019-03-26T18:42:04.141Z,101134.18
2019-03-26T18:44:32.591Z,101129.41
2019-03-26T18:47:01.051Z,101132.94
2019-03-26T18:49:29.469Z,101140.05
2019-03-26T18:51:57.996Z,101142.02
2019-03-26T18:54:26.410Z,101139.59
2019-03-26T18:56:54.836Z,101145.01
2019-03-26T18:59:23.303Z,101142.38
2019-03-26T19:01:51.732Z,101138.95
2019-03-26T19:04:20.176Z,101150.08
2019-03-26T19:06:48.639Z,101151.04
2019-03-26T19:09:17.040Z,101150.12
2019-03-26T19:11:45.473Z,101149.76
2019-03-26T19:14:13.859Z,101142.18
2019-03-26T19:16:42.324Z,101142.98
2019-03-26T19:19:10.763Z,101148.05
2019-03-26T19:21:39.233Z,101148.08
2019-03-26T19:24:07.657Z,101147.84
2019-03-26T19:26:36.086Z,101141.53
2019-03-26T19:29:04.597Z,101142.72
2019-03-26T19:31:32.996Z,101154.45
2019-03-26T19:34:01.414Z,101154.34
2019-03-26T19:36:29.865Z,101156.58
2019-03-26T19:38:58.419Z,101161.12
2019-03-26T19:41:26.943Z,101151.20
2019-03-26T19:43:55.416Z,101156.25
2019-03-26T19:46:23.909Z,101152.06
2019-03-26T19:48:52.299Z,101150.65
2019-03-26T19:51:20.751Z,101148.99
2019-03-26T19:53:49.177Z,101156.52
2019-03-26T19:56:17.695Z,101153.50
2019-03-26T19:58:46.146Z,101156.38
2019-03-26T20:01:14.646Z,101157.58
2019-03-26T20:03:43.153Z,101150.15
2019-03-26T20:06:13.733Z,101154.58
2019-03-26T20:08:41.876Z,101153.88
2019-03-26T20:11:10.390Z,101162.59
2019-03-26T20:13:38.917Z,101165.44
2019-03-26T20:16:07.440Z,101166.02
2019-03-26T20:18:35.853Z,101172.48
2019-03-26T20:21:04.591Z,101174.02
2019-03-26T20:23:33.156Z,101171.47
2019-03-26T20:26:01.625Z,101171.53
2019-03-26T20:28:30.020Z,101174.27
2019-03-26T20:30:58.490Z,101177.73
2019-03-26T20:33:26.915Z,101179.61
2019-03-26T20:35:55.327Z,101179.25
2019-03-26T20:38:23.747Z,101179.64
2019-03-26T20:40:52.408Z,101180.23
2019-03-26T20:43:20.839Z,101184.06
2019-03-26T20:45:49.290Z,101193.37
2019-03-26T20:48:17.931Z,101193.37
2019-03-26T20:50:46.444Z,101194.70
2019-03-26T20:53:14.961Z,101190.63
2019-03-26T20:55:53.860Z,101192.89
2019-03-26T20:58:13.705Z,101191.11
2019-03-26T21:03:35.031Z,101199.02
2019-03-26T21:06:03.615Z,101198.41
2019-03-26T21:08:32.092Z,101196.72
2019-03-26T21:11:00.657Z,101193.75
2019-03-26T21:13:29.124Z,101191.02
2019-03-26T21:15:57.825Z,101191.84
2019-03-26T21:18:26.284Z,101184.33
2019-03-26T21:20:54.776Z,101191.27
2019-03-26T21:23:23.374Z,101191.61
2019-03-26T21:25:51.849Z,101192.19
2019-03-26T21:28:20.320Z,101197.81
2019-03-26T21:30:48.870Z,101193.28
2019-03-26T21:33:17.296Z,101192.55
2019-03-26T21:35:45.810Z,101194.73
2019-03-26T21:38:14.292Z,101187.20
2019-03-26T21:40:42.766Z,101199.15
2019-03-26T21:43:11.251Z,101211.09
2019-03-26T21:45:40.321Z,101203.32
2019-03-26T21:48:09.096Z,101209.05
2019-03-26T21:50:37.681Z,101208.83
2019-03-26T21:53:06.236Z,101201.30
2019-03-26T21:55:34.796Z,101204.77
2019-03-26T21:58:03.555Z,101208.74
2019-03-26T22:00:31.995Z,101198.90
2019-03-26T22:03:00.533Z,101208.36
2019-03-26T22:05:28.966Z,101210.70
2019-03-26T22:07:57.454Z,101212.75
2019-03-26T22:10:25.916Z,101207.61
2019-03-26T22:12:54.331Z,101209.48
2019-03-26T22:15:22.823Z,101212.72
2019-03-26T22:17:51.254Z,101212.02
2019-03-26T22:20:19.826Z,101215.85
2019-03-26T22:22:48.278Z,101213.09
2019-03-26T22:25:16.853Z,101215.76
2019-03-26T22:27:45.293Z,101213.81
2019-03-26T22:30:14.451Z,101214.33
2019-03-26T22:32:42.868Z,101211.59
2019-03-26T22:35:11.742Z,101212.83
2019-03-26T22:37:40.229Z,101209.25
2019-03-26T22:40:09.297Z,101214.06
2019-03-26T22:42:37.782Z,101219.21
2019-03-26T22:45:08.868Z,101220.67
2019-03-26T22:47:38.755Z,101214.31
2019-03-26T22:50:08.601Z,101209.78
2019-03-26T22:52:37.157Z,101211.34
2019-03-26T22:55:07.794Z,101214.11
2019-03-26T22:57:36.383Z,101216.16
2019-03-26T23:00:08.113Z,101218.53
2019-03-26T23:02:36.620Z,101212.20
2019-03-26T23:05:06.914Z,101214.60
2019-03-26T23:07:35.399Z,101216.05
2019-03-26T23:10:04.855Z,101210.43
2019-03-26T23:12:33.278Z,101219.16
2019-03-26T23:15:01.879Z,101217.11
2019-03-26T23:17:30.359Z,101216.05
2019-03-26T23:19:58.772Z,101212.23
2019-03-26T23:22:27.188Z,101214.97
2019-03-26T23:24:55.601Z,101214.49
2019-03-26T23:27:24.016Z,101217.13
2019-03-26T23:29:52.414Z,101220.84
2019-03-26T23:32:20.849Z,101220.09
2019-03-26T23:34:49.318Z,101218.31
2019-03-26T23:37:17.737Z,101220.33
2019-03-26T23:39:46.149Z,101222.23
2019-03-26T23:42:14.561Z,101219.15
2019-03-26T23:44:43.058Z,101219.03
2019-03-26T23:47:11.464Z,101221.31
2019-03-26T23:49:39.900Z,101214.59
2019-03-26T23:52:08.403Z,101228.95
2019-03-26T23:54:36.790Z,101225.00
2019-03-26T23:57:05.184Z,101220.11
2019-03-26T23:59:33.606Z,101225.38
